createdAt,value
2023-03-26T00:04:39.329Z,7.8
2023-03-26T00:09:45.816Z,7.8
2023-03-26T00:15:17.432Z,7.8
2023-03-26T00:20:00.886Z,7.8
2023-03-26T00:25:07.294Z,7.8
2023-03-26T00:30:37.752Z,7.8
2023-03-26T00:35:20.149Z,7.8
2023-03-26T00:40:26.542Z,7.8
2023-03-26T00:45:32.904Z,7.8
2023-03-26T00:51:17.494Z,7.7
2023-03-26T00:55:45.806Z,7.7
2023-03-26T01:01:12.225Z,7.8
2023-03-26T01:05:58.546Z,7.7
2023-03-26T01:11:05.089Z,7.7
2023-03-26T01:16:35.482Z,7.7
2023-03-26T01:21:18.019Z,7.7
2023-03-26T01:26:48.689Z,7.7
2023-03-26T01:31:31.005Z,7.7
2023-03-26T01:36:37.386Z,7.7
2023-03-26T01:42:07.836Z,7.7
2023-03-26T01:47:10.315Z,7.7
2023-03-26T01:51:56.634Z,7.7
2023-03-26T01:57:03.074Z,7.7
2023-03-26T02:02:09.595Z,7.7
2023-03-26T02:07:39.945Z,7.7
2023-03-26T02:12:46.328Z,7.7
2023-03-26T02:17:48.762Z,7.6
2023-03-26T02:27:41.458Z,7.6
2023-03-26T02:33:11.945Z,7.6
2023-03-26T02:39:14.512Z,7.6
2023-03-26T02:43:20.722Z,7.6
2023-03-26T02:53:13.442Z,7.6
2023-03-26T02:58:19.828Z,7.6
2023-03-26T03:03:26.387Z,7.5
2023-03-26T03:13:39.103Z,7.5
2023-03-26T03:18:45.597Z,7.5
2023-03-26T03:23:51.999Z,7.5
2023-03-26T03:28:58.354Z,7.5
2023-03-26T03:34:04.765Z,7.5
2023-03-26T03:39:11.198Z,7.5
2023-03-26T03:44:53.650Z,7.5
2023-03-26T03:50:01.052Z,7.5
2023-03-26T03:55:07.565Z,7.5
2023-03-26T04:00:13.924Z,7.6
2023-03-26T04:05:20.322Z,7.5
2023-03-26T04:10:26.739Z,7.6
2023-03-26T04:15:53.379Z,7.6
2023-03-26T04:20:29.569Z,7.6
2023-03-26T04:25:45.999Z,7.6
2023-03-26T04:30:52.444Z,7.6
2023-03-26T04:35:58.972Z,7.6
2023-03-26T04:41:25.373Z,7.6
2023-03-26T04:46:11.756Z,7.6
2023-03-26T04:51:18.073Z,7.6
2023-03-26T04:56:28.524Z,7.6
2023-03-26T05:02:26.974Z,7.6
2023-03-26T05:06:37.350Z,7.6
2023-03-26T05:11:43.863Z,7.7
2023-03-26T05:17:10.242Z,7.6
2023-03-26T05:21:46.664Z,7.6
2023-03-26T05:27:03.086Z,7.7
2023-03-26T05:37:15.814Z,7.7
2023-03-26T05:48:10.696Z,7.7
2023-03-26T05:53:17.208Z,7.7
2023-03-26T05:58:23.713Z,7.7
2023-03-26T06:03:30.197Z,7.7
2023-03-26T06:08:36.449Z,7.7
2023-03-26T06:13:42.958Z,7.7
2023-03-26T06:18:49.341Z,7.8
2023-03-26T06:23:55.675Z,7.7
2023-03-26T06:29:02.138Z,7.8
2023-03-26T06:34:08.466Z,7.8
2023-03-26T06:39:14.958Z,7.9
2023-03-26T06:44:22.511Z,7.9
2023-03-26T06:49:28.877Z,8.0
2023-03-26T06:54:35.243Z,8.0
2023-03-26T06:59:41.657Z,8.1
2023-03-26T07:04:47.998Z,8.2
2023-03-26T07:09:54.407Z,8.3
2023-03-26T07:15:00.925Z,8.4
2023-03-26T07:20:07.329Z,8.5
2023-03-26T07:25:57.839Z,8.6
2023-03-26T07:30:10.133Z,8.7
2023-03-26T07:40:32.887Z,8.8
2023-03-26T07:50:45.656Z,8.9
2023-03-26T08:00:58.455Z,8.9
2023-03-26T08:11:01.302Z,8.9
2023-03-26T08:16:17.800Z,8.8
2023-03-26T08:21:24.113Z,8.8
2023-03-26T08:26:30.488Z,8.8
2023-03-26T08:31:26.912Z,8.8
2023-03-26T08:36:43.331Z,8.8
2023-03-26T08:41:49.726Z,8.8
2023-03-26T08:52:03.139Z,8.8
2023-03-26T08:57:09.566Z,8.8
2023-03-26T09:02:05.942Z,8.8
2023-03-26T09:07:22.318Z,8.8
2023-03-26T09:12:28.765Z,8.8
2023-03-26T09:17:35.326Z,8.8
2023-03-26T09:22:47.265Z,8.8
2023-03-26T09:27:38.609Z,8.8
2023-03-26T09:32:56.065Z,8.9
2023-03-26T09:43:08.787Z,8.9
2023-03-26T09:48:35.194Z,9.0
2023-03-26T09:53:21.625Z,9.0
2023-03-26T09:58:27.968Z,9.0
2023-03-26T10:03:34.355Z,9.1
2023-03-26T10:09:04.809Z,9.1
2023-03-26T10:13:47.122Z,9.1
2023-03-26T10:18:53.501Z,9.2
2023-03-26T10:24:24.064Z,9.2
2023-03-26T10:28:56.469Z,9.3
2023-03-26T10:37:18.947Z,9.4
2023-03-26T10:45:48.363Z,9.5
2023-03-26T10:51:11.601Z,9.6
2023-03-26T11:01:25.495Z,9.7
2023-03-26T11:06:31.760Z,9.8
2023-03-26T11:11:43.743Z,9.8
2023-03-26T11:16:46.141Z,9.9
2023-03-26T11:21:52.589Z,9.9
2023-03-26T11:27:15.924Z,10.0
2023-03-26T11:32:25.527Z,10.0
2023-03-26T11:37:11.831Z,10.0
2023-03-26T11:42:18.227Z,10.1
2023-03-26T11:47:24.657Z,10.1
2023-03-26T11:52:32.591Z,10.2
2023-03-26T11:57:38.964Z,10.3
2023-03-26T12:02:45.347Z,10.3
2023-03-26T12:07:41.689Z,10.3
2023-03-26T12:12:58.130Z,10.4
2023-03-26T12:18:04.671Z,10.4
2023-03-26T12:23:11.094Z,10.4
2023-03-26T12:28:37.467Z,10.4
2023-03-26T12:33:23.845Z,10.3
2023-03-26T12:38:30.222Z,10.3
2023-03-26T12:44:56.401Z,10.2
2023-03-26T12:48:43.206Z,10.2
2023-03-26T12:53:49.545Z,10.2
2023-03-26T12:58:56.037Z,10.1
2023-03-26T13:04:02.424Z,10.1
2023-03-26T13:09:08.852Z,10.1
2023-03-26T13:14:35.237Z,10.0
2023-03-26T13:19:21.568Z,10.0
2023-03-26T13:35:17.450Z,10.0
2023-03-26T13:39:50.774Z,10.0
2023-03-26T13:45:04.759Z,10.0
2023-03-26T13:50:03.521Z,10.0
2023-03-26T13:55:29.986Z,10.0
2023-03-26T14:00:16.327Z,10.1
2023-03-26T14:06:32.886Z,10.2
2023-03-26T14:10:29.143Z,10.2
2023-03-26T14:15:35.564Z,10.3
2023-03-26T14:20:41.918Z,10.4
2023-03-26T14:25:48.274Z,10.5
2023-03-26T14:30:55.001Z,10.7
2023-03-26T14:35:51.020Z,10.8
2023-03-26T14:41:10.965Z,10.9
2023-03-26T14:46:17.436Z,11.0
2023-03-26T14:51:25.314Z,11.1
2023-03-26T14:56:31.694Z,11.1
2023-03-26T15:01:38.089Z,11.1
2023-03-26T15:06:44.420Z,11.2
2023-03-26T15:11:50.803Z,11.2
2023-03-26T15:16:57.247Z,11.3
2023-03-26T15:22:03.548Z,11.3
2023-03-26T15:27:09.929Z,11.3
2023-03-26T15:32:17.896Z,11.3
2023-03-26T15:37:24.264Z,11.3
2023-03-26T15:42:30.645Z,11.3
2023-03-26T15:47:37.105Z,11.3
2023-03-26T15:52:43.478Z,11.2
2023-03-26T15:57:53.890Z,11.2
2023-03-26T16:02:56.624Z,11.1
2023-03-26T16:08:02.833Z,11.0
2023-03-26T16:13:43.267Z,10.9
2023-03-26T16:18:15.643Z,10.8
2023-03-26T16:23:22.095Z,10.8
2023-03-26T16:28:28.689Z,10.7
2023-03-26T16:33:35.101Z,10.6
2023-03-26T16:38:31.433Z,10.5
2023-03-26T16:43:49.430Z,10.4
2023-03-26T16:48:55.796Z,10.3
2023-03-26T16:54:02.270Z,10.2
2023-03-26T16:59:08.736Z,10.1
2023-03-26T17:04:15.160Z,10.0
2023-03-26T17:09:21.554Z,9.9
2023-03-26T17:14:27.956Z,9.8
2023-03-26T17:19:34.319Z,9.7
2023-03-26T17:24:40.800Z,9.6
2023-03-26T17:29:37.243Z,9.5
2023-03-26T17:34:53.678Z,9.4
2023-03-26T17:40:00.020Z,9.3
2023-03-26T17:44:56.374Z,9.2
2023-03-26T17:50:13.053Z,9.1
2023-03-26T17:55:19.359Z,9.0
2023-03-26T18:00:25.731Z,8.8
2023-03-26T18:05:32.139Z,8.8
2023-03-26T18:10:38.476Z,8.6
2023-03-26T18:15:45.188Z,8.5
2023-03-26T18:20:51.529Z,8.4
2023-03-26T18:25:57.842Z,8.3
2023-03-26T18:31:04.238Z,8.2
2023-03-26T18:36:10.813Z,8.1
2023-03-26T18:41:22.855Z,8.0
2023-03-26T18:46:25.246Z,7.9
2023-03-26T18:51:31.975Z,7.7
2023-03-26T18:56:38.025Z,7.6
2023-03-26T19:01:47.291Z,7.5
2023-03-26T19:06:54.272Z,7.4
2023-03-26T19:12:24.751Z,7.2
2023-03-26T19:17:07.729Z,7.1
2023-03-26T19:22:14.107Z,7.0
2023-03-26T19:27:20.671Z,6.8
2023-03-26T19:33:12.575Z,6.7
2023-03-26T19:37:35.107Z,6.5
2023-03-26T19:45:26.385Z,6.3
2023-03-26T19:57:07.734Z,6.2
2023-03-26T20:02:13.997Z,6.2
2023-03-26T20:07:40.428Z,6.0
2023-03-26T20:12:26.772Z,5.9
2023-03-26T20:17:33.168Z,5.7
2023-03-26T20:27:46.172Z,5.5
2023-03-26T20:33:54.665Z,5.3
2023-03-26T20:38:42.090Z,5.3
2023-03-26T20:46:32.003Z,5.0
2023-03-26T20:51:38.990Z,5.0
2023-03-26T20:56:45.353Z,5.0
2023-03-26T21:02:15.825Z,4.9
2023-03-26T21:07:18.710Z,4.8
2023-03-26T21:12:24.698Z,4.7
2023-03-26T21:17:11.224Z,4.6
2023-03-26T21:22:17.652Z,4.4
2023-03-26T21:27:52.072Z,4.4
2023-03-26T21:32:32.039Z,4.3
2023-03-26T21:42:44.965Z,4.1
2023-03-26T21:47:51.399Z,4.0
2023-03-26T21:52:57.748Z,4.0
2023-03-26T21:58:04.110Z,3.9
2023-03-26T22:03:34.581Z,3.8
2023-03-26T22:08:16.922Z,3.7
2023-03-26T22:13:47.485Z,3.7
2023-03-26T22:18:29.812Z,3.6
2023-03-26T22:23:36.533Z,3.5
2023-03-26T22:28:42.605Z,3.4
2023-03-26T22:33:49.016Z,3.3
2023-03-26T22:38:55.480Z,3.3
2023-03-26T22:43:51.800Z,3.2
2023-03-26T22:49:08.194Z,3.1
2023-03-26T23:09:24.845Z,2.9
2023-03-26T23:14:41.751Z,2.8
2023-03-26T23:20:09.208Z,2.8
2023-03-26T23:24:55.560Z,2.7
2023-03-26T23:40:15.889Z,2.5
2023-03-26T23:45:42.322Z,2.5
2023-03-26T23:50:18.626Z,2.4
2023-03-26T23:55:59.109Z,2.3
